Time;durP1;ratioP1;P1;durP2;ratioP2;P2;SDS_P1;SDS_P2;PMS_P1;PMS_P2;Temp;Humidity;BMP_temperature;BMP_pressure;BME280_temperature;BME280_humidity;BME280_pressure;Samples;Min_cycle;Max_cycle;Signal;HPM_P1;HPM_P2
2022/11/12 00:02:09;;;;;;;7.95;4.75;;;;;12.50;102953.00;;;;5070519;28;20268;-73
2022/11/12 00:04:36;;;;;;;7.63;4.60;;;;;12.50;102946.00;;;;5060313;28;20211;-73
2022/11/12 00:07:04;;;;;;;6.07;5.18;;;;;12.50;102943.00;;;;5057388;28;20206;-74
2022/11/12 00:09:31;;;;;;;6.00;4.80;;;;;12.40;102942.00;;;;5070449;28;20191;-73
2022/11/12 00:11:58;;;;;;;6.10;4.70;;;;;12.40;102935.00;;;;5057375;28;20215;-74
2022/11/12 00:14:27;;;;;;;7.90;5.40;;;;;12.40;102938.00;;;;5053899;28;20195;-74
2022/11/12 00:16:54;;;;;;;7.70;5.22;;;;;12.40;102936.00;;;;5052583;28;20192;-74
2022/11/12 00:19:21;;;;;;;5.55;4.72;;;;;12.40;102942.00;;;;5050299;28;20192;-74
2022/11/12 00:21:48;;;;;;;7.00;5.72;;;;;12.40;102942.00;;;;5053032;28;20584;-74
2022/11/12 00:24:16;;;;;;;8.00;5.05;;;;;12.30;102927.00;;;;5052395;28;20594;-74
2022/11/12 00:26:43;;;;;;;6.40;4.47;;;;;12.30;102940.00;;;;5061063;28;20210;-74
2022/11/12 00:29:10;;;;;;;7.32;4.90;;;;;12.30;102943.00;;;;5070280;28;20203;-74
2022/11/12 00:31:39;;;;;;;5.05;4.55;;;;;12.30;102944.00;;;;5051254;28;20574;-74
2022/11/12 00:34:06;;;;;;;8.43;5.22;;;;;12.30;102939.00;;;;5052829;28;20684;-74
2022/11/12 00:36:34;;;;;;;7.97;5.15;;;;;12.30;102943.00;;;;5057602;28;20210;-74
2022/11/12 00:39:01;;;;;;;6.03;4.70;;;;;12.30;102947.00;;;;5067097;28;20206;-74
2022/11/12 00:41:28;;;;;;;7.13;4.75;;;;;12.20;102940.00;;;;5052083;28;20203;-74
2022/11/12 00:43:55;;;;;;;7.55;5.47;;;;;12.30;102942.00;;;;5049594;28;20238;-74
2022/11/12 00:46:23;;;;;;;6.60;5.63;;;;;12.20;102939.00;;;;5069011;28;20195;-74
2022/11/12 00:48:51;;;;;;;6.47;4.95;;;;;12.20;102940.00;;;;5063186;28;20200;-74
2022/11/12 00:51:19;;;;;;;8.63;5.50;;;;;12.20;102939.00;;;;5050344;28;20218;-74
2022/11/12 00:53:48;;;;;;;8.52;5.40;;;;;12.20;102943.00;;;;5050346;28;20207;-74
2022/11/12 00:56:15;;;;;;;5.55;4.95;;;;;12.20;102943.00;;;;5058961;28;20606;-74
2022/11/12 00:58:43;;;;;;;7.15;5.50;;;;;12.20;102943.00;;;;5058722;28;20674;-74
2022/11/12 01:01:12;;;;;;;8.13;5.72;;;;;12.20;102942.00;;;;5050251;28;20200;-74
2022/11/12 01:03:41;;;;;;;7.22;4.72;;;;;12.20;102937.00;;;;5048936;28;20238;-74
2022/11/12 01:06:12;;;;;;;5.65;4.70;;;;;12.10;102936.00;;;;5060496;28;20215;-74
2022/11/12 01:08:40;;;;;;;8.68;4.78;;;;;12.10;102931.00;;;;5050172;28;20196;-74
2022/11/12 01:11:10;;;;;;;7.60;5.53;;;;;12.10;102937.00;;;;5063372;28;20207;-74
2022/11/12 01:13:38;;;;;;;6.90;5.32;;;;;12.10;102939.00;;;;5053927;28;20211;-74
2022/11/12 01:16:07;;;;;;;6.35;4.80;;;;;12.10;102935.00;;;;5050136;28;20206;-74
2022/11/12 01:18:34;;;;;;;6.88;5.40;;;;;12.10;102949.00;;;;5055569;28;20211;-74
2022/11/12 01:21:02;;;;;;;6.25;5.18;;;;;12.10;102944.00;;;;5058086;28;20572;-74
2022/11/12 01:23:33;;;;;;;6.13;5.05;;;;;12.00;102934.00;;;;5055169;28;20230;-74
2022/11/12 01:26:04;;;;;;;6.82;5.40;;;;;12.00;102938.00;;;;5053428;28;20740;-74
2022/11/12 01:28:32;;;;;;;7.28;5.80;;;;;12.10;102937.00;;;;5056096;28;20203;-74
2022/11/12 01:31:09;;;;;;;8.27;5.57;;;;;12.10;102942.00;;;;5051392;28;20887;-74
2022/11/12 01:33:36;;;;;;;6.70;5.35;;;;;12.10;102937.00;;;;5048973;28;20191;-74
2022/11/12 01:36:04;;;;;;;7.03;5.70;;;;;12.10;102941.00;;;;5051519;28;20196;-74
2022/11/12 01:38:35;;;;;;;7.57;5.50;;;;;12.00;102933.00;;;;5052512;28;20195;-74
2022/11/12 01:41:04;;;;;;;8.45;6.60;;;;;12.10;102935.00;;;;5065564;28;20214;-74
2022/11/12 01:43:31;;;;;;;7.97;6.78;;;;;12.10;102937.00;;;;5064361;28;20233;-74
2022/11/12 01:45:59;;;;;;;7.40;5.95;;;;;12.00;102932.00;;;;5049528;28;20218;-74
2022/11/12 01:48:29;;;;;;;8.45;6.15;;;;;12.10;102931.00;;;;5061548;28;20199;-74
2022/11/12 01:50:57;;;;;;;7.80;6.22;;;;;12.00;102930.00;;;;5067539;28;20195;-74
2022/11/12 01:53:30;;;;;;;8.50;6.60;;;;;12.00;102924.00;;;;5048718;28;20572;-74
2022/11/12 01:55:59;;;;;;;9.40;6.10;;;;;12.00;102920.00;;;;5050036;28;20195;-74
2022/11/12 01:58:29;;;;;;;7.78;6.13;;;;;12.00;102928.00;;;;5048474;28;20210;-74
2022/11/12 02:00:57;;;;;;;11.57;5.90;;;;;12.00;102929.00;;;;5048591;28;20194;-74
2022/11/12 02:03:25;;;;;;;8.27;6.47;;;;;12.00;102931.00;;;;5049583;28;20219;-74
2022/11/12 02:05:57;;;;;;;8.85;6.15;;;;;12.00;102934.00;;;;5048922;28;20204;-74
2022/11/12 02:08:25;;;;;;;8.32;6.53;;;;;12.00;102933.00;;;;5048164;28;20188;-74
2022/11/12 02:10:52;;;;;;;8.18;6.50;;;;;12.00;102933.00;;;;5047991;28;20749;-74
2022/11/12 02:16:08;;;;;;;10.15;6.20;;;;;12.00;102925.00;;;;5068605;28;20206;-74
2022/11/12 02:18:36;;;;;;;8.00;6.25;;;;;12.00;102919.00;;;;5063249;28;20669;-74
2022/11/12 02:21:07;;;;;;;7.88;6.05;;;;;12.00;102917.00;;;;5046800;28;20604;-74
2022/11/12 02:23:37;;;;;;;7.55;5.97;;;;;12.00;102909.00;;;;5048593;28;20685;-74
2022/11/12 02:26:05;;;;;;;7.38;6.38;;;;;12.00;102910.00;;;;5055783;28;20208;-74
2022/11/12 02:28:33;;;;;;;7.05;5.82;;;;;12.00;102911.00;;;;5062131;28;20580;-74
2022/11/12 02:31:01;;;;;;;8.15;6.05;;;;;12.00;102905.00;;;;5058153;28;20191;-74
2022/11/12 02:33:28;;;;;;;7.80;6.47;;;;;12.00;102904.00;;;;5055189;28;20206;-74
2022/11/12 02:35:55;;;;;;;7.40;6.40;;;;;12.00;102899.00;;;;5058448;28;20238;-74
2022/11/12 02:38:22;;;;;;;6.85;5.78;;;;;12.00;102898.00;;;;5058267;28;20198;-74
2022/11/12 02:40:52;;;;;;;7.95;6.50;;;;;12.00;102899.00;;;;5047734;28;20199;-74
2022/11/12 02:43:19;;;;;;;7.03;6.15;;;;;12.00;102897.00;;;;5046483;28;20246;-74
2022/11/12 02:45:47;;;;;;;8.23;6.43;;;;;12.00;102890.00;;;;5050919;28;20285;-74
2022/11/12 02:48:14;;;;;;;7.45;6.00;;;;;12.00;102902.00;;;;5047098;28;20203;-74
2022/11/12 02:50:41;;;;;;;9.32;6.10;;;;;12.00;102898.00;;;;5051867;28;20661;-74
2022/11/12 02:53:08;;;;;;;10.25;7.90;;;;;12.00;102905.00;;;;5056666;28;20192;-74
2022/11/12 02:55:36;;;;;;;9.60;7.15;;;;;12.00;102905.00;;;;5048117;28;20638;-74
2022/11/12 02:58:04;;;;;;;12.30;7.57;;;;;12.00;102903.00;;;;5052054;28;20195;-74
2022/11/12 03:00:31;;;;;;;15.85;8.07;;;;;12.00;102903.00;;;;5052215;28;20211;-74
2022/11/12 03:02:59;;;;;;;13.05;7.88;;;;;12.00;102895.00;;;;5064352;28;20205;-74
2022/11/12 03:05:27;;;;;;;15.00;7.90;;;;;12.00;102907.00;;;;5047581;28;20207;-74
2022/11/12 03:07:58;;;;;;;12.48;7.07;;;;;12.00;102896.00;;;;5046995;28;20203;-74
2022/11/12 03:10:26;;;;;;;9.98;7.40;;;;;12.00;102908.00;;;;5050313;28;20192;-74
2022/11/12 03:12:53;;;;;;;10.50;6.53;;;;;12.10;102904.00;;;;5047318;28;20203;-74
2022/11/12 03:15:22;;;;;;;11.50;7.55;;;;;12.10;102909.00;;;;5056514;28;20226;-74
2022/11/12 03:17:49;;;;;;;13.18;7.93;;;;;12.10;102905.00;;;;5058961;28;20191;-74
2022/11/12 03:20:17;;;;;;;10.38;7.07;;;;;12.10;102903.00;;;;5050560;28;20188;-74
2022/11/12 03:22:54;;;;;;;10.35;7.07;;;;;12.10;102909.00;;;;5063651;28;20550;-74
2022/11/12 03:25:21;;;;;;;13.15;7.40;;;;;12.10;102897.00;;;;5046103;28;20234;-74
2022/11/12 03:27:48;;;;;;;12.93;7.43;;;;;12.20;102898.00;;;;5051757;28;20203;-74
2022/11/12 03:30:16;;;;;;;12.25;8.20;;;;;12.20;102897.00;;;;5055689;28;20212;-75
2022/11/12 03:32:44;;;;;;;9.60;7.40;;;;;12.20;102897.00;;;;5046201;28;20673;-75
2022/11/12 03:35:12;;;;;;;9.23;7.10;;;;;12.20;102889.00;;;;5046117;28;20616;-75
2022/11/12 03:37:39;;;;;;;10.23;6.65;;;;;12.20;102890.00;;;;5046373;28;20210;-75
2022/11/12 03:40:07;;;;;;;8.45;6.85;;;;;12.20;102896.00;;;;5046166;28;20199;-75
2022/11/12 03:42:35;;;;;;;9.77;6.90;;;;;12.20;102889.00;;;;5046366;28;20203;-75
2022/11/12 03:45:02;;;;;;;8.23;6.93;;;;;12.20;102889.00;;;;5046874;28;20227;-75
2022/11/12 03:47:29;;;;;;;7.60;6.28;;;;;12.20;102895.00;;;;5051464;28;20206;-75
2022/11/12 03:49:58;;;;;;;9.13;5.80;;;;;12.20;102884.00;;;;5055992;28;20199;-75
2022/11/12 03:52:25;;;;;;;13.90;6.43;;;;;12.30;102900.00;;;;5056652;28;20195;-74
2022/11/12 03:54:52;;;;;;;10.00;6.95;;;;;12.30;102901.00;;;;5051371;28;20191;-75
2022/11/12 03:57:20;;;;;;;8.50;6.40;;;;;12.30;102899.00;;;;5055484;28;20207;-76
2022/11/12 03:59:47;;;;;;;9.35;5.85;;;;;12.30;102903.00;;;;5070286;28;20191;-76
2022/11/12 04:02:14;;;;;;;9.35;6.47;;;;;12.30;102906.00;;;;5051882;28;20207;-76
2022/11/12 04:10:12;;;;;;;7.55;6.38;;;;;12.20;102888.00;;;;5050512;28;20206;-76
2022/11/12 04:15:24;;;;;;;9.77;5.97;;;;;12.20;102907.00;;;;5051187;28;20281;-76
2022/11/12 04:23:30;;;;;;;8.20;5.68;;;;;12.10;102910.00;;;;5016349;28;20692;-76
2022/11/12 04:30:14;;;;;;;8.30;6.03;;;;;12.10;102905.00;;;;5051187;28;20321;-76
2022/11/12 04:31:29;;;;;;;8.07;6.00;;;;;12.10;102906.00;;;;5069376;28;20722;-76
2022/11/12 04:34:27;;;;;;;8.60;6.35;;;;;12.10;102902.00;;;;5069863;28;20774;-76
2022/11/12 04:36:44;;;;;;;10.25;6.45;;;;;12.10;102905.00;;;;5054162;28;21084;-76
2022/11/12 04:39:13;;;;;;;6.63;5.63;;;;;12.00;102906.00;;;;5050623;28;20641;-76
2022/11/12 04:47:09;;;;;;;7.43;5.53;;;;;12.00;102895.00;;;;5049874;28;20256;-76
2022/11/12 04:49:36;;;;;;;8.68;6.70;;;;;11.90;102885.00;;;;5049434;28;20210;-76
2022/11/12 04:52:07;;;;;;;8.05;6.68;;;;;11.90;102882.00;;;;5050500;28;20200;-76
2022/11/12 04:54:35;;;;;;;8.57;6.35;;;;;11.90;102881.00;;;;5050074;28;20226;-76
2022/11/12 04:57:03;;;;;;;9.07;6.38;;;;;11.90;102895.00;;;;5052843;28;20191;-76
2022/11/12 04:59:30;;;;;;;7.93;6.13;;;;;11.90;102884.00;;;;5054512;28;20578;-76
2022/11/12 05:01:57;;;;;;;9.00;6.93;;;;;11.80;102880.00;;;;5048440;28;20684;-76
2022/11/12 05:04:26;;;;;;;9.25;6.35;;;;;11.80;102873.00;;;;5053018;28;20238;-76
2022/11/12 05:06:53;;;;;;;8.32;6.28;;;;;11.80;102867.00;;;;5049780;28;20203;-76
2022/11/12 05:09:22;;;;;;;8.57;6.72;;;;;11.80;102861.00;;;;5048891;28;20564;-76
2022/11/12 05:11:51;;;;;;;7.85;6.88;;;;;11.80;102865.00;;;;5050024;28;20247;-76
2022/11/12 05:14:19;;;;;;;7.65;6.53;;;;;11.70;102862.00;;;;5049249;28;20202;-76
2022/11/12 05:16:46;;;;;;;8.38;6.72;;;;;11.80;102856.00;;;;5054658;28;20672;-74
2022/11/12 05:19:13;;;;;;;9.82;7.95;;;;;11.70;102861.00;;;;5069587;28;20202;-75
2022/11/12 05:24:22;;;;;;;11.18;7.22;;;;;11.70;102857.00;;;;5035927;28;20576;-75
2022/11/12 05:26:52;;;;;;;12.85;7.43;;;;;11.70;102856.00;;;;5048992;28;20621;-75
2022/11/12 05:29:19;;;;;;;9.02;7.22;;;;;11.70;102857.00;;;;5050555;28;20200;-75
2022/11/12 05:31:46;;;;;;;10.45;8.02;;;;;11.60;102857.00;;;;5049933;28;20202;-75
2022/11/12 05:34:14;;;;;;;10.43;6.97;;;;;11.60;102858.00;;;;5049267;28;20230;-75
2022/11/12 05:36:41;;;;;;;11.07;8.02;;;;;11.60;102859.00;;;;5055414;28;20206;-75
2022/11/12 05:39:09;;;;;;;8.75;6.22;;;;;11.60;102859.00;;;;5068476;28;20199;-75
2022/11/12 05:41:36;;;;;;;9.20;6.63;;;;;11.60;102864.00;;;;5051403;28;20192;-75
2022/11/12 05:44:05;;;;;;;10.65;7.70;;;;;11.60;102860.00;;;;5053892;28;20223;-75
2022/11/12 05:46:32;;;;;;;8.27;6.43;;;;;11.50;102860.00;;;;5051535;28;20892;-75
2022/11/12 05:48:59;;;;;;;8.73;6.75;;;;;11.50;102867.00;;;;5055808;28;20206;-75
2022/11/12 05:51:27;;;;;;;11.13;7.95;;;;;11.50;102869.00;;;;5050551;28;20229;-75
2022/11/12 05:53:54;;;;;;;11.43;6.90;;;;;11.50;102859.00;;;;5063654;28;20648;-75
2022/11/12 05:56:21;;;;;;;8.75;7.32;;;;;11.50;102870.00;;;;5059339;28;20207;-75
2022/11/12 05:58:49;;;;;;;9.48;6.68;;;;;11.50;102867.00;;;;5053837;28;20187;-75
2022/11/12 06:01:17;;;;;;;9.02;7.15;;;;;11.40;102870.00;;;;5048642;28;20203;-75
2022/11/12 06:03:44;;;;;;;8.27;6.70;;;;;11.40;102867.00;;;;5049816;28;20219;-75
2022/11/12 06:06:12;;;;;;;9.27;7.53;;;;;11.40;102873.00;;;;5055054;28;20218;-75
2022/11/12 06:08:40;;;;;;;9.50;6.88;;;;;11.40;102872.00;;;;5066247;28;20433;-75
2022/11/12 06:11:07;;;;;;;10.45;7.30;;;;;11.40;102868.00;;;;5054331;28;20200;-75
2022/11/12 06:13:34;;;;;;;10.30;7.40;;;;;11.40;102872.00;;;;5048368;28;20206;-75
2022/11/12 06:16:02;;;;;;;10.15;7.22;;;;;11.40;102869.00;;;;5048709;28;20199;-75
2022/11/12 06:18:31;;;;;;;9.77;7.50;;;;;11.40;102870.00;;;;5052698;28;20206;-75
2022/11/12 06:23:47;;;;;;;8.05;6.63;;;;;11.40;102872.00;;;;5049411;28;20206;-75
2022/11/12 06:26:14;;;;;;;9.55;6.95;;;;;11.40;102872.00;;;;5047366;28;20235;-75
2022/11/12 06:28:41;;;;;;;8.48;6.93;;;;;11.40;102871.00;;;;5048446;28;20219;-75
2022/11/12 06:31:08;;;;;;;8.20;6.90;;;;;11.40;102874.00;;;;5052150;28;20207;-76
2022/11/12 06:33:37;;;;;;;8.70;7.57;;;;;11.30;102870.00;;;;5047945;28;20203;-76
2022/11/12 06:36:06;;;;;;;8.63;6.82;;;;;11.30;102886.00;;;;5046687;28;20700;-76
2022/11/12 06:38:35;;;;;;;8.43;7.15;;;;;11.30;102873.00;;;;5057738;28;20203;-76
2022/11/12 06:41:02;;;;;;;9.15;6.93;;;;;11.40;102879.00;;;;5058625;28;20199;-76
2022/11/12 06:43:31;;;;;;;9.90;6.57;;;;;11.30;102873.00;;;;5051958;28;20214;-75
2022/11/12 06:46:00;;;;;;;9.00;6.10;;;;;11.30;102870.00;;;;5052585;28;20235;-75
2022/11/12 06:48:29;;;;;;;8.68;7.25;;;;;11.30;102867.00;;;;5056716;28;20253;-75
2022/11/12 06:51:05;;;;;;;8.48;6.90;;;;;11.30;102873.00;;;;5054929;28;20208;-75
2022/11/12 06:53:32;;;;;;;8.80;7.22;;;;;11.40;102879.00;;;;5048216;28;20202;-75
2022/11/12 06:56:02;;;;;;;11.27;7.28;;;;;11.30;102881.00;;;;5048264;28;20204;-75
2022/11/12 06:58:30;;;;;;;7.00;6.15;;;;;11.40;102890.00;;;;5050908;28;20594;-76
2022/11/12 07:00:57;;;;;;;8.38;7.10;;;;;11.40;102881.00;;;;5054940;28;20229;-75
2022/11/12 07:03:24;;;;;;;9.45;7.07;;;;;11.40;102898.00;;;;5054379;28;20210;-76
2022/11/12 07:05:51;;;;;;;8.43;6.68;;;;;11.30;102879.00;;;;5053075;28;20234;-75
2022/11/12 07:08:20;;;;;;;9.88;6.68;;;;;11.30;102890.00;;;;5054194;28;20210;-76
2022/11/12 07:10:47;;;;;;;8.23;6.32;;;;;11.40;102897.00;;;;5054990;28;20384;-76
2022/11/12 07:13:15;;;;;;;7.35;6.50;;;;;11.40;102898.00;;;;5057933;28;20200;-76
2022/11/12 07:15:42;;;;;;;7.82;6.05;;;;;11.40;102899.00;;;;5056624;28;20195;-76
2022/11/12 07:18:09;;;;;;;8.73;6.35;;;;;11.40;102915.00;;;;5054382;28;20199;-76
2022/11/12 07:20:36;;;;;;;11.40;6.95;;;;;11.40;102920.00;;;;5062374;28;20206;-76
2022/11/12 07:23:04;;;;;;;11.35;6.25;;;;;11.40;102917.00;;;;5047497;28;20666;-76
2022/11/12 07:25:32;;;;;;;8.82;6.40;;;;;11.40;102921.00;;;;5046921;28;20728;-77
2022/11/12 07:27:59;;;;;;;8.27;6.40;;;;;11.40;102914.00;;;;5051000;28;20210;-76
2022/11/12 07:30:27;;;;;;;7.70;5.97;;;;;11.50;102922.00;;;;5055329;28;20207;-76
2022/11/12 07:32:57;;;;;;;8.55;6.07;;;;;11.50;102916.00;;;;5051413;28;20191;-76
2022/11/12 07:35:24;;;;;;;7.47;6.03;;;;;11.50;102908.00;;;;5051924;28;20231;-76
2022/11/12 07:37:52;;;;;;;7.88;6.75;;;;;11.50;102914.00;;;;5061540;28;20204;-76
2022/11/12 07:40:20;;;;;;;6.75;5.43;;;;;11.60;102916.00;;;;5051698;28;20191;-77
2022/11/12 07:42:49;;;;;;;9.20;5.97;;;;;11.60;102913.00;;;;5060515;28;20681;-76
2022/11/12 07:45:16;;;;;;;8.38;6.15;;;;;11.60;102911.00;;;;5052427;28;20223;-76
2022/11/12 07:47:45;;;;;;;5.80;5.18;;;;;11.70;102912.00;;;;5055107;28;20226;-76
2022/11/12 07:50:12;;;;;;;7.07;6.25;;;;;11.70;102909.00;;;;5052011;28;20196;-76
2022/11/12 07:52:39;;;;;;;9.45;6.22;;;;;11.80;102918.00;;;;5051401;28;20195;-76
2022/11/12 07:55:07;;;;;;;7.72;5.72;;;;;11.80;102914.00;;;;5053890;28;20661;-76
2022/11/12 07:57:35;;;;;;;8.48;6.10;;;;;11.80;102916.00;;;;5062752;28;21045;-77
2022/11/12 08:00:04;;;;;;;6.82;5.85;;;;;11.90;102920.00;;;;5056583;28;20800;-77
2022/11/12 08:02:32;;;;;;;6.35;5.35;;;;;11.90;102926.00;;;;5053152;28;20199;-76
2022/11/12 08:04:59;;;;;;;7.65;5.35;;;;;12.00;102926.00;;;;5050478;28;20238;-76
2022/11/12 08:07:27;;;;;;;6.97;5.45;;;;;12.00;102933.00;;;;5061595;28;20210;-76
2022/11/12 08:09:54;;;;;;;7.05;6.05;;;;;12.10;102929.00;;;;5065547;28;20195;-77
2022/11/12 08:12:21;;;;;;;9.30;5.82;;;;;12.10;102927.00;;;;5058245;28;20226;-76
2022/11/12 08:14:48;;;;;;;9.07;5.65;;;;;12.20;102936.00;;;;5051148;28;20210;-77
2022/11/12 08:17:17;;;;;;;8.13;5.45;;;;;12.20;102933.00;;;;5050897;28;20195;-76
2022/11/12 08:19:44;;;;;;;6.93;5.47;;;;;12.30;102933.00;;;;5061614;28;20203;-77
2022/11/12 08:22:11;;;;;;;7.60;5.93;;;;;12.30;102932.00;;;;5059131;28;20199;-77
2022/11/12 08:24:39;;;;;;;9.70;5.70;;;;;12.40;102927.00;;;;5050008;28;20207;-77
2022/11/12 08:27:06;;;;;;;7.05;5.72;;;;;12.40;102935.00;;;;5054982;28;20195;-77
2022/11/12 08:29:33;;;;;;;6.57;5.68;;;;;12.50;102936.00;;;;5051909;28;20203;-78
2022/11/12 08:32:00;;;;;;;8.93;5.88;;;;;12.50;102932.00;;;;5055695;28;20419;-77
2022/11/12 08:34:29;;;;;;;7.38;6.18;;;;;12.60;102940.00;;;;5051682;28;20235;-77
2022/11/12 08:36:56;;;;;;;8.48;6.45;;;;;12.60;102946.00;;;;5061533;28;20191;-77
2022/11/12 08:39:24;;;;;;;8.93;6.28;;;;;12.70;102940.00;;;;5058587;28;20192;-78
2022/11/12 08:41:51;;;;;;;7.72;6.10;;;;;12.80;102944.00;;;;5051523;28;20199;-77
2022/11/12 08:44:18;;;;;;;8.43;6.82;;;;;12.80;102944.00;;;;5048737;28;20208;-77
2022/11/12 08:46:45;;;;;;;9.48;6.47;;;;;12.90;102941.00;;;;5049470;28;20227;-77
2022/11/12 08:49:12;;;;;;;7.82;6.65;;;;;12.90;102945.00;;;;5051379;28;20246;-77
2022/11/12 08:51:41;;;;;;;10.40;6.40;;;;;13.00;102946.00;;;;5058116;28;20729;-77
2022/11/12 08:54:09;;;;;;;9.30;7.32;;;;;13.10;102943.00;;;;5050045;28;20214;-77
2022/11/12 08:56:36;;;;;;;8.95;6.82;;;;;13.10;102945.00;;;;5052867;28;20203;-78
2022/11/12 08:59:03;;;;;;;8.77;6.95;;;;;13.20;102942.00;;;;5057498;28;20573;-76
2022/11/12 09:01:31;;;;;;;9.13;6.82;;;;;13.30;102936.00;;;;5048507;28;20211;-76
2022/11/12 09:03:58;;;;;;;8.95;6.82;;;;;13.30;102935.00;;;;5049354;28;20206;-77
2022/11/12 09:06:25;;;;;;;8.77;6.93;;;;;13.40;102932.00;;;;5054573;28;20234;-77
2022/11/12 09:08:54;;;;;;;7.78;6.32;;;;;13.40;102933.00;;;;5055283;28;20195;-77
2022/11/12 09:11:21;;;;;;;9.10;7.03;;;;;13.50;102926.00;;;;5054170;28;20202;-76
2022/11/12 09:13:49;;;;;;;8.95;6.03;;;;;13.50;102933.00;;;;5051561;28;20208;-76
2022/11/12 09:16:16;;;;;;;6.43;5.60;;;;;13.60;102935.00;;;;5065206;28;20195;-76
2022/11/12 09:18:44;;;;;;;8.13;6.70;;;;;13.70;102935.00;;;;5067214;28;20684;-77
2022/11/12 09:21:12;;;;;;;8.82;6.72;;;;;13.70;102941.00;;;;5054004;28;20203;-78
2022/11/12 09:23:40;;;;;;;7.45;6.65;;;;;13.80;102944.00;;;;5059910;28;20195;-77
2022/11/12 09:26:08;;;;;;;7.18;5.88;;;;;13.90;102940.00;;;;5068571;28;20226;-78
2022/11/12 09:28:35;;;;;;;7.68;6.45;;;;;14.00;102946.00;;;;5054614;28;20195;-78
2022/11/12 09:31:03;;;;;;;7.25;6.10;;;;;14.00;102949.00;;;;5056752;28;20199;-77
2022/11/12 09:33:33;;;;;;;10.18;6.82;;;;;14.10;102945.00;;;;5056182;28;20207;-77
2022/11/12 09:36:01;;;;;;;7.70;6.70;;;;;14.20;102937.00;;;;5059861;28;20723;-77
2022/11/12 09:38:29;;;;;;;9.95;7.00;;;;;14.30;102945.00;;;;5056577;28;20204;-76
2022/11/12 09:41:20;;;;;;;8.10;6.63;;;;;14.30;102949.00;;;;5057709;28;20205;-77
2022/11/12 09:43:51;;;;;;;9.30;7.05;;;;;14.40;102938.00;;;;5055727;28;20211;-77
2022/11/12 09:46:33;;;;;;;7.57;6.78;;;;;14.50;102944.00;;;;5051976;28;20215;-77
2022/11/12 09:49:07;;;;;;;7.90;6.85;;;;;14.60;102947.00;;;;5067151;28;20195;-78
2022/11/12 09:51:39;;;;;;;8.93;6.85;;;;;14.70;102949.00;;;;5048911;28;20199;-78
2022/11/12 09:54:19;;;;;;;10.00;7.30;;;;;14.80;102953.00;;;;5063580;28;20203;-77
2022/11/12 09:56:48;;;;;;;10.13;6.53;;;;;14.90;102960.00;;;;5058722;28;20215;-76
2022/11/12 09:59:17;;;;;;;9.38;7.60;;;;;15.00;102962.00;;;;5052667;28;20196;-77
2022/11/12 10:01:53;;;;;;;10.48;7.47;;;;;15.10;102960.00;;;;5055708;28;20561;-77
2022/11/12 10:04:53;;;;;;;8.98;6.72;;;;;15.10;102955.00;;;;5049562;28;20633;-76
2022/11/12 10:07:29;;;;;;;9.35;7.00;;;;;15.30;102959.00;;;;5048960;28;20204;-77
2022/11/12 10:10:02;;;;;;;7.55;6.75;;;;;15.40;102965.00;;;;5064236;28;20690;-77
2022/11/12 10:12:43;;;;;;;7.57;6.38;;;;;15.50;102963.00;;;;5047788;28;20697;-77
2022/11/12 10:18:39;;;;;;;6.88;5.85;;;;;15.80;102951.00;;;;5019415;28;20211;-77
2022/11/12 10:21:19;;;;;;;9.00;6.28;;;;;15.90;102952.00;;;;5048349;28;20202;-76
2022/11/12 10:23:49;;;;;;;9.48;7.63;;;;;16.00;102948.00;;;;5048824;28;20203;-77
2022/11/12 10:26:19;;;;;;;7.68;6.80;;;;;16.10;102951.00;;;;5060849;28;20219;-77
2022/11/12 10:28:50;;;;;;;8.02;6.68;;;;;16.20;102949.00;;;;5059433;28;21057;-77
2022/11/12 10:31:21;;;;;;;9.40;6.82;;;;;16.30;102950.00;;;;5067903;28;20206;-77
2022/11/12 10:33:48;;;;;;;8.98;6.65;;;;;16.40;102948.00;;;;5051408;28;20196;-77
2022/11/12 10:36:28;;;;;;;7.55;6.75;;;;;16.40;102942.00;;;;5049514;28;20200;-76
2022/11/12 10:38:56;;;;;;;7.88;7.05;;;;;16.60;102943.00;;;;5050859;28;20199;-77
2022/11/12 10:41:26;;;;;;;7.38;6.65;;;;;16.60;102943.00;;;;5045232;28;20271;-75
2022/11/12 10:43:55;;;;;;;9.13;6.80;;;;;16.70;102937.00;;;;5048333;28;20203;-76
2022/11/12 10:46:26;;;;;;;9.48;6.53;;;;;16.80;102934.00;;;;5055041;28;20233;-75
2022/11/12 10:49:00;;;;;;;9.57;7.55;;;;;16.90;102941.00;;;;5047555;28;20579;-76
2022/11/12 10:51:31;;;;;;;7.18;6.18;;;;;17.00;102940.00;;;;5048512;28;20195;-75
2022/11/12 10:53:59;;;;;;;7.50;6.72;;;;;17.10;102945.00;;;;5053683;28;20199;-77
2022/11/12 10:56:29;;;;;;;8.73;7.13;;;;;17.20;102941.00;;;;5058061;28;20668;-77
2022/11/12 10:59:15;;;;;;;8.27;6.90;;;;;17.20;102934.00;;;;5052087;28;20260;-78
2022/11/12 11:01:45;;;;;;;7.57;6.60;;;;;17.30;102933.00;;;;5047769;28;20199;-78
2022/11/12 11:04:28;;;;;;;7.90;6.45;;;;;17.30;102936.00;;;;5055462;28;20207;-77
2022/11/12 11:07:05;;;;;;;6.95;6.18;;;;;17.50;102938.00;;;;5051852;28;20229;-77
2022/11/12 11:09:37;;;;;;;7.68;5.95;;;;;17.60;102928.00;;;;5063894;28;20715;-78
2022/11/12 11:12:05;;;;;;;6.57;5.88;;;;;17.70;102928.00;;;;5062058;28;20214;-78
2022/11/12 11:14:34;;;;;;;6.85;5.75;;;;;17.70;102925.00;;;;5055310;28;20578;-78
2022/11/12 11:17:08;;;;;;;6.80;6.10;;;;;17.80;102926.00;;;;5053648;28;20407;-78
2022/11/12 11:19:38;;;;;;;8.55;5.82;;;;;17.90;102933.00;;;;5069255;28;20706;-78
2022/11/12 11:22:26;;;;;;;6.07;5.30;;;;;18.00;102922.00;;;;5058842;28;20198;-79
2022/11/12 11:25:15;;;;;;;7.00;5.70;;;;;18.10;102926.00;;;;5059650;28;20199;-79
2022/11/12 11:27:53;;;;;;;6.65;5.95;;;;;18.20;102925.00;;;;5053326;28;20199;-77
2022/11/12 11:30:22;;;;;;;6.40;5.80;;;;;18.30;102918.00;;;;5051485;28;20203;-78
2022/11/12 11:33:15;;;;;;;6.93;6.25;;;;;18.30;102922.00;;;;5058886;28;20550;-78
2022/11/12 11:35:57;;;;;;;6.18;5.13;;;;;18.40;102917.00;;;;5061454;28;20613;-77
2022/11/12 11:38:43;;;;;;;7.75;5.82;;;;;18.50;102907.00;;;;5052321;28;20210;-78
2022/11/12 11:41:29;;;;;;;9.95;6.22;;;;;18.60;102911.00;;;;5050562;28;20262;-78
2022/11/12 11:44:06;;;;;;;5.78;5.18;;;;;18.80;102915.00;;;;5053594;28;20560;-78
2022/11/12 11:46:50;;;;;;;6.22;5.15;;;;;18.80;102915.00;;;;5054724;28;20700;-78
2022/11/12 11:49:36;;;;;;;6.90;5.03;;;;;18.90;102917.00;;;;5057748;28;20229;-77
2022/11/12 11:52:13;;;;;;;5.85;5.07;;;;;19.00;102918.00;;;;5050336;28;20207;-77
2022/11/12 11:55:16;;;;;;;5.65;5.07;;;;;19.10;102906.00;;;;5060812;28;20199;-77
2022/11/12 11:57:53;;;;;;;6.07;5.30;;;;;19.20;102903.00;;;;5050181;28;20206;-77
2022/11/12 12:00:24;;;;;;;5.95;5.18;;;;;19.30;102897.00;;;;5061727;28;20665;-78
2022/11/12 12:03:25;;;;;;;6.65;5.13;;;;;19.30;102898.00;;;;5071414;28;20604;-77
2022/11/12 12:06:12;;;;;;;5.53;4.80;;;;;19.40;102910.00;;;;5067075;28;20309;-77
2022/11/12 12:09:10;;;;;;;6.85;4.97;;;;;19.50;102901.00;;;;5051940;28;20238;-76
2022/11/12 12:11:47;;;;;;;7.70;4.63;;;;;19.70;102904.00;;;;5048995;28;20192;-77
2022/11/12 12:14:40;;;;;;;5.28;4.45;;;;;19.70;102890.00;;;;5051563;28;20206;-77
2022/11/12 12:17:17;;;;;;;4.32;3.92;;;;;19.80;102895.00;;;;5058982;28;20191;-77
2022/11/12 12:19:57;;;;;;;5.65;5.05;;;;;19.90;102883.00;;;;5060908;28;20194;-77
2022/11/12 12:22:34;;;;;;;5.97;4.72;;;;;20.00;102877.00;;;;5049307;28;21524;-78
2022/11/12 12:25:09;;;;;;;5.22;4.45;;;;;20.10;102879.00;;;;5055798;28;20199;-78
2022/11/12 12:27:43;;;;;;;6.38;4.38;;;;;20.20;102874.00;;;;5063735;28;20241;-77
2022/11/12 12:30:19;;;;;;;6.68;4.65;;;;;20.20;102869.00;;;;5052383;28;20198;-77
2022/11/12 12:32:53;;;;;;;6.80;5.32;;;;;20.30;102873.00;;;;5052011;28;20225;-77
2022/11/12 12:35:26;;;;;;;5.18;4.40;;;;;20.40;102864.00;;;;5064266;28;20254;-78
2022/11/12 12:38:05;;;;;;;6.13;4.85;;;;;20.50;102853.00;;;;5051448;28;20616;-78
2022/11/12 12:40:35;;;;;;;4.93;4.28;;;;;20.60;102851.00;;;;5049289;28;20214;-77
2022/11/12 12:43:10;;;;;;;5.35;4.68;;;;;20.80;102844.00;;;;5049539;28;20195;-78
2022/11/12 12:45:41;;;;;;;4.68;3.97;;;;;21.00;102851.00;;;;5050849;28;20234;-78
2022/11/12 12:48:16;;;;;;;4.45;4.05;;;;;21.20;102850.00;;;;5053801;28;20199;-77
2022/11/12 12:50:45;;;;;;;4.43;4.03;;;;;21.60;102846.00;;;;5067152;28;20660;-79
2022/11/12 12:53:35;;;;;;;4.80;4.40;;;;;22.00;102840.00;;;;5057321;28;20195;-77
2022/11/12 12:56:04;;;;;;;3.97;3.58;;;;;22.70;102831.00;;;;5049921;28;20202;-78